Domov               UVHVVR             MKGP            O straneh              
ZDRAVSTVENO VARSTVO RASTLIN
  MREŽA AGROMET. POSTAJ
 ► PROGNOSTIČNA OBVESTILA
AGROMETEOROLOŠKI PODATKI -
ARSO
OBVLADOVANJE TVEGANJ ZARADI
NEUGODNIH VREMENSKIH RAZMER
  ► NARAVNE NESREČE
  ► SUŠA/MOČA
  ► NAMAKANJE
  ► ŽLED (gozdarstvo)
KARTOGRAFSKI PRIKAZI
SPLETNE POVEZAVE
PROJEKTI IN PUBLIKACIJE

AGROMETEOROLOŠKA MREŽA: VREMENSKE POSTAJE IN FENOLOŠKA OPAZOVANJA

Pregled podatkov za lokacijo Čelje, meteorološka postaja 37797

Pregled senzorjev na lokaciji

ID Ime Zadnja
vrednost
Datum in čas
zadnje
spremembe
(Lokalni čas)
Tip
senzorja
1815 Omočenost lista (1,5 m) (U) 0 U 23.1.2022 16:00 A730WET
5056 Padavine (mm) 0 mm 23.1.2022 16:00 Generic 0.2 mm
1814 Relativna zračna vlaga (2 m) (%RH) 59 %RH 23.1.2022 16:00 50YA
1813 Temperatura (2 m) (°C) 6.4 °C 23.1.2022 16:00 50YA

Pregled podatkov zadnjih 24 ur

Zap.
št.
Datum in čas
(Centralno
evropski čas)
Čelje
Omočenost
lista
(1,5
m)
Padavine Relativna
zračna
vlaga
(2
m)
Temperatura
(2
m)
1 23.1.2022 16:00 0 0 59.3 6.4
2 23.1.2022 15:30 0 0 60 7
3 23.1.2022 15:00 0 0 58.6 7.6
4 23.1.2022 14:30 0 0 59 7.1
5 23.1.2022 14:00 0 0 59.2 7.1
6 23.1.2022 13:30 0 0 56.9 7.3
7 23.1.2022 13:00 0 0 57.3 7.2
8 23.1.2022 12:30 0 0 61.7 6.1
9 23.1.2022 12:00 0 0 65.6 5.6
10 23.1.2022 11:30 0 0 68.4 4.6
11 23.1.2022 11:00 0 0 69.2 3.7
12 23.1.2022 10:30 0 0 74.6 1.6
13 23.1.2022 10:00 6 0 81.4 -0.5
14 23.1.2022 09:30 0 0 85 -1.5
15 23.1.2022 09:00 1 0 89.2 -2.2
16 23.1.2022 08:30 0 0 92.3 -3.2
17 23.1.2022 08:00 0 0 92.6 -3.6
18 23.1.2022 07:30 0 0 92.2 -3.4
19 23.1.2022 07:00 0 0 91.4 -3.7
20 23.1.2022 06:30 0 0 89.1 -2.6
21 23.1.2022 06:00 0 0 88 -2.2
22 23.1.2022 05:30 0 0 90.1 -2.3
23 23.1.2022 05:00 0 0 90 -2.4
24 23.1.2022 04:30 0 0 90.6 -2.6
25 23.1.2022 04:00 0 0 89.8 -2.9
26 23.1.2022 03:30 0 0 87.3 -2.1
27 23.1.2022 03:00 0 0 85.9 -1.8
28 23.1.2022 02:30 0 0 84.5 -1.4
29 23.1.2022 02:00 0 0 84 -1.4
30 23.1.2022 01:30 0 0 82.9 -1.3
31 23.1.2022 01:00 0 0 81.8 -1.2
32 23.1.2022 00:30 0 0 80.1 -1.1
33 23.1.2022 00:00 0 0 77.2 -0.7
34 22.1.2022 23:30 0 0 74.7 -0.6
35 22.1.2022 23:00 0 0 76.1 -1.1
36 22.1.2022 22:30 0 0 75.8 -1
37 22.1.2022 22:00 0 0 73.7 -0.3
38 22.1.2022 21:30 0 0 74 -0.4
39 22.1.2022 21:00 0 0 72 0
40 22.1.2022 20:30 0 0 69.9 0.4
41 22.1.2022 20:00 0 0 66.3 0.8
42 22.1.2022 19:30 0 0 64.3 1.2
43 22.1.2022 19:00 0 0 65.3 0.8
44 22.1.2022 18:30 0 0 61.2 1.4
45 22.1.2022 18:00 0 0 56.4 2.6
46 22.1.2022 17:30 0 0 55.3 3
47 22.1.2022 17:00 0 0 54.4 3.2
© 2011 Ministrstvo za kmetijstvo, gozdarstvo in prehrano. Vse pravice pridržane.